createdAt,value
2018-12-13T00:02:08.655Z,55.90
2018-12-13T00:04:36.171Z,55.90
2018-12-13T00:07:03.963Z,55.90
2018-12-13T00:09:31.466Z,55.90
2018-12-13T00:11:59.006Z,56.00
2018-12-13T00:14:26.522Z,56.00
2018-12-13T00:16:54.045Z,56.00
2018-12-13T00:19:21.723Z,56.10
2018-12-13T00:21:49.280Z,56.00
2018-12-13T00:24:16.783Z,56.10
2018-12-13T00:34:06.782Z,56.10
2018-12-13T00:36:39.537Z,56.20
2018-12-13T00:39:05.315Z,56.20
2018-12-13T00:41:32.883Z,56.20
2018-12-13T00:44:00.440Z,56.10
2018-12-13T00:46:28.042Z,56.20
2018-12-13T00:51:23.030Z,56.10
2018-12-13T00:53:50.636Z,56.10
2018-12-13T00:56:18.130Z,56.20
2018-12-13T00:58:45.767Z,56.20
2018-12-13T01:01:13.257Z,56.20
2018-12-13T01:03:59.421Z,56.10
2018-12-13T01:06:27.510Z,56.20
2018-12-13T01:08:55.037Z,56.20
2018-12-13T01:11:22.504Z,56.10
2018-12-13T01:13:50.014Z,56.20
2018-12-13T01:18:52.788Z,56.20
2018-12-13T01:21:20.739Z,56.30
2018-12-13T01:23:48.685Z,56.40
2018-12-13T01:26:16.209Z,56.30
2018-12-13T01:28:43.719Z,56.30
2018-12-13T01:33:38.684Z,56.30
2018-12-13T01:36:06.243Z,56.40
2018-12-13T01:38:33.787Z,56.30
2018-12-13T01:41:01.278Z,56.30
2018-12-13T01:48:23.756Z,56.20
2018-12-13T01:50:51.226Z,56.20
2018-12-13T01:55:46.164Z,56.20
2018-12-13T01:58:13.626Z,56.30
2018-12-13T02:00:41.362Z,56.50
2018-12-13T02:03:08.886Z,56.60
2018-12-13T02:08:03.772Z,56.50
2018-12-13T02:10:31.278Z,56.30
2018-12-13T02:12:58.828Z,56.20
2018-12-13T02:17:53.819Z,56.10
2018-12-13T02:22:48.787Z,55.70
2018-12-13T02:25:16.305Z,55.70
2018-12-13T02:30:11.444Z,55.70
2018-12-13T02:32:39.014Z,55.60
2018-12-13T02:35:06.779Z,55.40
2018-12-13T02:37:34.359Z,55.40
2018-12-13T02:40:02.045Z,55.60
2018-12-13T02:42:29.712Z,55.40
2018-12-13T02:47:24.827Z,55.40
2018-12-13T02:49:52.387Z,55.40
2018-12-13T02:57:15.162Z,55.10
2018-12-13T02:59:42.725Z,55.10
2018-12-13T03:02:10.272Z,55.10
2018-12-13T03:07:05.236Z,54.90
2018-12-13T03:09:32.747Z,54.90
2018-12-13T03:12:00.316Z,54.90
2018-12-13T03:14:27.855Z,55.10
2018-12-13T03:16:55.356Z,55.10
2018-12-13T03:19:22.891Z,55.20
2018-12-13T03:21:50.383Z,55.00
2018-12-13T03:24:17.917Z,55.10
2018-12-13T03:29:12.813Z,55.30
2018-12-13T03:31:40.470Z,55.30
2018-12-13T03:34:08.039Z,55.30
2018-12-13T03:36:35.591Z,55.40
2018-12-13T03:39:07.393Z,55.40
2018-12-13T03:41:34.941Z,55.70
2018-12-13T03:44:03.354Z,55.60
2018-12-13T03:48:58.374Z,55.30
2018-12-13T03:51:25.968Z,55.10
2018-12-13T03:58:48.400Z,55.20
2018-12-13T04:03:43.324Z,55.20
2018-12-13T04:06:10.913Z,55.10
2018-12-13T04:08:39.865Z,55.20
2018-12-13T04:11:07.344Z,55.30
2018-12-13T04:13:34.913Z,55.30
2018-12-13T04:18:29.862Z,55.30
2018-12-13T04:20:59.060Z,55.30
2018-12-13T04:23:26.819Z,55.10
2018-12-13T04:30:49.322Z,55.30
2018-12-13T04:33:16.858Z,55.30
2018-12-13T04:35:44.372Z,55.40
2018-12-13T04:40:39.321Z,55.50
2018-12-13T04:43:06.865Z,55.40
2018-12-13T04:45:34.418Z,55.50
2018-12-13T04:50:29.436Z,55.50
2018-12-13T04:52:57.189Z,55.50
2018-12-13T04:55:24.767Z,55.40
2018-12-13T04:57:52.266Z,55.40
2018-12-13T05:00:19.904Z,55.40
2018-12-13T05:05:14.857Z,55.40
2018-12-13T05:07:42.377Z,55.50
2018-12-13T05:10:20.747Z,55.50
2018-12-13T05:12:48.260Z,55.40
2018-12-13T05:15:15.813Z,55.20
2018-12-13T05:17:43.366Z,55.20
2018-12-13T05:20:11.022Z,55.30
2018-12-13T05:22:38.523Z,55.40
2018-12-13T05:25:06.189Z,55.60
2018-12-13T05:27:33.826Z,55.50
2018-12-13T05:30:01.355Z,55.50
2018-12-13T05:32:28.943Z,55.40
2018-12-13T05:34:56.461Z,55.50
2018-12-13T05:37:24.037Z,55.60
2018-12-13T05:39:51.610Z,55.70
2018-12-13T05:42:19.208Z,55.70
2018-12-13T05:44:46.822Z,55.50
2018-12-13T05:47:14.378Z,55.40
2018-12-13T05:49:41.864Z,55.50
2018-12-13T05:57:04.555Z,55.30
2018-12-13T05:59:32.129Z,55.20
2018-12-13T06:01:59.702Z,55.20
2018-12-13T06:04:27.363Z,55.20
2018-12-13T06:09:22.494Z,55.40
2018-12-13T06:11:50.073Z,55.30
2018-12-13T06:14:17.639Z,55.40
2018-12-13T06:19:12.724Z,55.70
2018-12-13T06:21:40.315Z,55.70
2018-12-13T06:24:08.967Z,55.70
2018-12-13T06:26:36.631Z,55.70
2018-12-13T06:29:04.194Z,55.80
2018-12-13T06:31:31.727Z,55.80
2018-12-13T06:33:59.331Z,55.80
2018-12-13T06:36:26.814Z,55.90
2018-12-13T06:38:54.363Z,55.90
2018-12-13T06:41:21.903Z,55.90
2018-12-13T06:43:49.460Z,56.00
2018-12-13T06:46:17.056Z,56.10
2018-12-13T06:48:44.641Z,56.10
2018-12-13T06:51:12.264Z,56.10
2018-12-13T06:53:39.841Z,56.20
2018-12-13T06:56:07.435Z,56.20
2018-12-13T06:58:35.035Z,56.20
2018-12-13T07:03:30.273Z,56.30
2018-12-13T07:05:57.793Z,56.30
2018-12-13T07:10:52.841Z,56.30
2018-12-13T07:13:20.403Z,56.50
2018-12-13T07:15:47.927Z,56.50
2018-12-13T07:18:15.633Z,56.50
2018-12-13T07:23:10.638Z,56.40
2018-12-13T07:35:28.112Z,56.40
2018-12-13T07:37:55.726Z,56.40
2018-12-13T07:40:23.258Z,56.40
2018-12-13T07:42:50.856Z,56.20
2018-12-13T07:47:45.816Z,56.00
2018-12-13T07:52:40.851Z,56.10
2018-12-13T08:07:27.586Z,55.60
2018-12-13T08:09:55.128Z,55.50
2018-12-13T08:14:50.132Z,55.40
2018-12-13T08:17:17.675Z,55.50
2018-12-13T08:22:12.640Z,55.10
2018-12-13T08:27:07.580Z,55.00
2018-12-13T08:29:35.082Z,55.00
2018-12-13T08:34:30.195Z,55.00
2018-12-13T08:39:25.249Z,55.10
2018-12-13T08:41:52.946Z,55.20
2018-12-13T08:44:20.559Z,55.20
2018-12-13T08:46:48.138Z,55.20
2018-12-13T08:51:43.104Z,55.30
2018-12-13T08:54:10.696Z,55.30
2018-12-13T08:56:38.242Z,55.30
2018-12-13T08:59:05.954Z,55.30
2018-12-13T09:01:33.658Z,55.10
2018-12-13T09:04:01.250Z,55.00
2018-12-13T09:06:28.721Z,55.00
2018-12-13T09:08:56.332Z,55.00
2018-12-13T09:11:23.898Z,55.00
2018-12-13T09:16:18.808Z,55.00
2018-12-13T09:18:46.369Z,55.10
2018-12-13T09:21:13.837Z,55.10
2018-12-13T09:23:41.378Z,55.00
2018-12-13T09:28:36.306Z,54.90
2018-12-13T09:31:03.848Z,54.80
2018-12-13T09:33:31.488Z,54.80
2018-12-13T09:35:59.016Z,54.70
2018-12-13T09:40:55.126Z,54.60
2018-12-13T09:43:22.649Z,54.60
2018-12-13T09:45:50.164Z,54.60
2018-12-13T09:48:17.688Z,54.70
2018-12-13T09:50:45.194Z,54.70
2018-12-13T09:53:12.900Z,54.70
2018-12-13T09:58:07.826Z,54.60
2018-12-13T10:03:03.437Z,54.70
2018-12-13T10:05:30.957Z,54.70
2018-12-13T10:10:25.978Z,54.80
2018-12-13T10:12:53.563Z,54.80
2018-12-13T10:15:21.046Z,54.80
2018-12-13T10:17:48.593Z,54.80
2018-12-13T10:22:55.006Z,54.60
2018-12-13T10:25:22.565Z,54.70
2018-12-13T10:33:14.784Z,54.60
2018-12-13T10:35:48.177Z,54.60
2018-12-13T10:38:15.835Z,54.70
2018-12-13T10:41:03.037Z,54.50
2018-12-13T10:43:43.995Z,54.50
2018-12-13T10:46:17.225Z,54.50
2018-12-13T10:51:50.138Z,54.70
2018-12-13T10:54:23.758Z,54.60
2018-12-13T10:59:28.208Z,54.30
2018-12-13T11:18:16.791Z,53.30
2018-12-13T11:20:44.383Z,53.40
2018-12-13T11:28:31.155Z,53.00
2018-12-13T11:36:26.266Z,52.80
2018-12-13T11:41:49.770Z,52.40
2018-12-13T11:52:44.492Z,52.60
2018-12-13T11:55:44.021Z,52.70
2018-12-13T11:58:14.166Z,52.90
2018-12-13T12:03:09.343Z,53.00
2018-12-13T12:08:04.457Z,53.00
2018-12-13T12:10:32.031Z,53.10
2018-12-13T12:12:59.495Z,52.90
2018-12-13T12:15:27.022Z,52.70
2018-12-13T12:17:54.549Z,52.50
2018-12-13T12:20:22.205Z,52.40
2018-12-13T12:22:49.733Z,52.50
2018-12-13T12:25:17.367Z,52.30
2018-12-13T12:30:12.324Z,52.40
2018-12-13T12:32:39.777Z,52.20
2018-12-13T12:35:07.397Z,52.20
2018-12-13T12:37:35.105Z,52.10
2018-12-13T12:47:25.327Z,52.40
2018-12-13T12:49:52.817Z,52.40
2018-12-13T12:52:20.418Z,52.30
2018-12-13T12:54:47.907Z,52.50
2018-12-13T12:57:15.407Z,52.20
2018-12-13T12:59:42.875Z,51.90
2018-12-13T13:02:10.379Z,52.10
2018-12-13T13:09:43.331Z,51.90
2018-12-13T13:53:25.149Z,52.90
2018-12-13T13:56:03.155Z,52.70
2018-12-13T13:58:37.573Z,52.70
2018-12-13T14:07:04.411Z,52.70
2018-12-13T14:09:37.774Z,52.70
2018-12-13T14:14:29.135Z,52.90
2018-12-13T14:16:56.641Z,52.80
2018-12-13T14:19:24.253Z,52.80
2018-12-13T14:21:51.761Z,52.70
2018-12-13T14:24:19.323Z,52.80
2018-12-13T14:26:46.843Z,52.70
2018-12-13T14:29:14.335Z,52.70
2018-12-13T14:34:09.385Z,52.90
2018-12-13T14:36:36.917Z,52.70
2018-12-13T14:41:33.310Z,52.60
2018-12-13T14:44:00.816Z,52.50
2018-12-13T14:46:28.417Z,52.50
2018-12-13T14:48:55.965Z,52.60
2018-12-13T14:51:23.433Z,52.60
2018-12-13T14:56:18.414Z,52.40
2018-12-13T14:58:45.915Z,52.40
2018-12-13T15:01:13.387Z,52.30
2018-12-13T15:06:08.375Z,52.40
2018-12-13T15:08:35.829Z,52.50
2018-12-13T15:11:03.364Z,52.50
2018-12-13T15:13:30.808Z,52.60
2018-12-13T15:15:58.338Z,52.50
2018-12-13T15:18:25.859Z,52.50
2018-12-13T15:20:53.388Z,52.50
2018-12-13T15:25:48.372Z,52.30
2018-12-13T15:28:16.023Z,52.20
2018-12-13T15:30:43.500Z,52.20
2018-12-13T15:33:11.089Z,52.30
2018-12-13T15:35:38.631Z,52.40
2018-12-13T15:38:06.164Z,52.30
2018-12-13T15:40:33.746Z,52.30
2018-12-13T15:43:01.284Z,52.30
2018-12-13T15:45:29.093Z,52.30
2018-12-13T15:50:24.024Z,52.40
2018-12-13T15:52:51.536Z,52.40
2018-12-13T15:55:19.066Z,52.50
2018-12-13T16:00:14.663Z,52.60
2018-12-13T16:02:42.136Z,52.50
2018-12-13T16:05:09.642Z,52.60
2018-12-13T16:07:37.292Z,52.40
2018-12-13T16:10:05.195Z,52.50
2018-12-13T16:12:32.823Z,52.40
2018-12-13T16:15:00.444Z,52.30
2018-12-13T16:17:27.994Z,52.30
2018-12-13T16:19:55.558Z,52.30
2018-12-13T16:22:23.161Z,52.30
2018-12-13T16:24:50.674Z,52.30
2018-12-13T16:29:46.640Z,52.40
2018-12-13T16:32:14.170Z,52.30
2018-12-13T16:34:41.681Z,52.30
2018-12-13T16:37:09.226Z,52.50
2018-12-13T16:39:36.812Z,52.40
2018-12-13T16:42:04.327Z,52.40
2018-12-13T16:44:31.852Z,52.30
2018-12-13T16:46:59.379Z,52.50
2018-12-13T16:49:26.930Z,52.40
2018-12-13T16:51:54.474Z,52.50
2018-12-13T16:54:22.068Z,52.30
2018-12-13T16:56:49.592Z,52.10
2018-12-13T17:01:44.609Z,52.10
2018-12-13T17:04:12.291Z,52.20
2018-12-13T17:06:40.820Z,52.10
2018-12-13T17:09:08.366Z,52.20
2018-12-13T17:11:36.127Z,52.30
2018-12-13T17:14:03.662Z,52.30
2018-12-13T17:16:31.228Z,52.50
2018-12-13T17:18:59.380Z,52.60
2018-12-13T17:23:54.500Z,52.70
2018-12-13T17:28:50.872Z,52.70
2018-12-13T17:31:18.525Z,52.50
2018-12-13T17:33:45.999Z,52.50
2018-12-13T17:36:13.564Z,52.30
2018-12-13T17:38:55.853Z,52.10
2018-12-13T17:41:25.693Z,52.10
2018-12-13T17:48:50.473Z,52.40
2018-12-13T17:51:19.000Z,52.50
2018-12-13T17:53:46.583Z,52.60
2018-12-13T17:56:14.169Z,52.80
2018-12-13T17:58:41.858Z,52.90
2018-12-13T18:01:09.529Z,52.90
2018-12-13T18:03:37.189Z,52.90
2018-12-13T18:06:23.747Z,52.90
2018-12-13T18:13:46.524Z,52.90
2018-12-13T18:16:14.143Z,52.80
2018-12-13T18:18:41.963Z,52.80
2018-12-13T18:26:05.013Z,52.60
2018-12-13T18:31:00.226Z,52.40
2018-12-13T18:38:22.839Z,52.40
2018-12-13T18:40:50.488Z,52.50
2018-12-13T18:43:18.320Z,52.50
2018-12-13T18:45:45.890Z,52.40
2018-12-13T18:48:13.538Z,52.70
2018-12-13T18:55:36.220Z,52.80
2018-12-13T18:58:04.000Z,52.80
2018-12-13T19:00:31.822Z,52.90
2018-12-13T19:10:22.246Z,53.10
2018-12-13T19:12:49.798Z,53.10
2018-12-13T19:17:45.124Z,53.00
2018-12-13T19:20:12.941Z,53.10
2018-12-13T19:22:51.624Z,53.00
2018-12-13T19:28:21.911Z,53.00
2018-12-13T19:41:39.427Z,52.90
2018-12-13T19:46:34.416Z,53.20
2018-12-13T19:49:02.411Z,53.30
2018-12-13T19:56:24.937Z,53.30
2018-12-13T19:58:52.551Z,53.30
2018-12-13T20:01:20.045Z,53.20
2018-12-13T20:03:47.669Z,53.20
2018-12-13T20:11:20.895Z,53.20
2018-12-13T20:13:48.425Z,53.20
2018-12-13T20:18:53.627Z,52.90
2018-12-13T20:21:21.261Z,52.90
2018-12-13T20:34:19.687Z,53.10
2018-12-13T20:36:47.431Z,53.00
2018-12-13T20:41:42.701Z,53.00
2018-12-13T20:46:44.464Z,52.90
2018-12-13T21:02:53.902Z,52.30
2018-12-13T21:05:21.596Z,52.40
2018-12-13T21:26:45.511Z,52.70
2018-12-13T21:29:12.998Z,52.80
2018-12-13T21:39:11.241Z,52.70
2018-12-13T21:41:38.907Z,52.50
2018-12-13T21:44:06.510Z,52.50
2018-12-13T21:59:59.749Z,52.40
2018-12-13T22:05:23.662Z,52.20
2018-12-13T22:10:30.782Z,52.80
2018-12-13T22:15:26.127Z,52.40
2018-12-13T22:23:02.733Z,52.40
2018-12-13T22:28:10.238Z,52.50
2018-12-13T22:38:40.393Z,52.40
2018-12-13T22:41:08.046Z,52.50
2018-12-13T22:43:35.838Z,52.60
2018-12-13T22:46:04.041Z,52.60
2018-12-13T22:48:32.342Z,52.70
2018-12-13T22:53:28.140Z,52.50
2018-12-13T22:55:55.640Z,52.40
2018-12-13T22:58:23.199Z,52.40
2018-12-13T23:13:49.696Z,52.20
2018-12-13T23:19:28.380Z,52.30
2018-12-13T23:22:02.406Z,52.30
2018-12-13T23:30:21.701Z,52.20
2018-12-13T23:38:24.638Z,52.00
2018-12-13T23:45:53.623Z,52.00
2018-12-13T23:48:21.236Z,52.00
2018-12-13T23:53:16.674Z,52.00
2018-12-13T23:55:44.223Z,52.10
